Weather observations for the past three days for
Newton Municipal Airport - Earl Johnson Field
Imperial (Metric)
Date Time (cdt) Wind (mph) Vis. (mi.) Weather Sky Cond. Temperature (ºF) Relative Humidity Wind Chill (°F) Heat Index (°F) Pressure Precipitation (in)
Air Dwpt 6 hour altimeter (in) sea level (mb) 1 hr 3 hr 6 hr
Max. Min.
08 14:35 SW 14 10.00 Fair CLR 73.4 30.2 20% 29.73 0.0
08 14:15 NW 6 10.00 Fair CLR 71.6 30.2 22% 29.74 0.0
08 13:55 W 9 G 16 10.00 Fair CLR 73.4 28.4 19% 29.75 0.0
08 13:35 W 9 10.00 Fair CLR 71.6 28.4 20% 29.75 0.0
08 13:15 Vrbl 5 10.00 Fair CLR 69.8 28.4 21% 29.75 0.0
08 12:35 NW 9 0.00 Fair CLR 69.8 28.4 21% 29.77 0.0
08 12:15 Vrbl 5 G 12 10.00 Fair CLR 69.8 28.4 21% 29.78 0.0
08 11:55 Vrbl 6 9.00 Fair CLR 69.8 32 25% 29.78 0.0
08 11:35 Vrbl 6 10.00 Fair CLR 68 32 26% 29.79 0.0
08 11:15 S 7 10.00 Fair CLR 68 32 26% 29.8 0.0
08 10:55 Calm 10.00 Fair CLR 66.2 39.2 37% 29.8 0.0
08 10:35 Vrbl 6 10.00 Fair CLR 64.4 42.8 46% 29.8 0.0
08 10:15 S 6 8.00 Fair CLR 62.6 42.8 49% 29.81 0.0
08 09:55 Vrbl 3 7.00 Fair CLR 59 42.8 55% 29.81 0.0
08 09:35 S 7 6.00 Fair with Haze CLR 59 42.8 55% 29.82 0.0
08 09:15 S 7 10.00 Fair CLR 57.2 42.8 59% 29.82 0.0
08 08:35 SE 7 10.00 Fair CLR 55.4 41 59% 29.81 0.0
08 08:15 E 5 10.00 A Few Clouds FEW120 51.8 39.2 62% 29.8 0.0
08 07:55 E 5 10.00 A Few Clouds FEW110 50 35.6 58% 49 29.8 0.0
08 07:35 E 6 10.00 Fair CLR 50 33.8 54% 48 29.8 0.0
08 07:15 E 6 10.00 Fair CLR 48.2 33.8 58% 46 29.81 0.0
08 06:55 Calm 10.00 A Few Clouds FEW110 46.4 33.8 62% 29.81 0.0
08 06:35 SE 6 10.00 Fair CLR 46.4 32 57% 44 29.81 0.0
08 06:15 SE 6 10.00 Fair CLR 46.4 28.4 50% 44 29.81 0.0
08 05:55 SE 6 10.00 Fair CLR 46.4 28.4 50% 44 29.81 0.0
08 05:35 SE 6 10.00 Fair CLR 46.4 28.4 50% 44 29.81 0.0
08 05:15 E 7 10.00 Fair CLR 46.4 28.4 50% 43 29.8 0.0
08 04:55 E 8 10.00 Fair CLR 48.2 26.6 43% 45 29.81 0.0
08 04:35 E 9 10.00 Fair CLR 46.4 26.6 46% 42 29.81 0.0
08 04:15 E 7 10.00 Fair CLR 48.2 26.6 43% 46 29.81 0.0
08 03:55 NE 8 10.00 Fair CLR 48.2 26.6 43% 45 29.8 0.0
08 03:35 NE 8 10.00 Fair CLR 48.2 28.4 46% 45 29.8 0.0
08 03:15 E 8 10.00 Fair CLR 46.4 28.4 50% 43 29.81 0.0
08 02:55 E 8 10.00 Fair CLR 48.2 28.4 46% 45 29.81 0.0
08 02:35 E 7 10.00 Fair CLR 48.2 28.4 46% 46 29.82 0.0
08 02:15 NE 8 10.00 Fair CLR 51.8 28.4 41% 29.82 0.0
08 01:55 NE 8 10.00 Fair CLR 50 30.2 47% 47 29.82 0.0
08 01:35 NE 7 10.00 Fair CLR 51.8 32 47% 29.82 0.0
08 01:15 NE 9 10.00 Fair CLR 53.6 32 44% 29.82 0.0
08 00:55 NE 8 10.00 Fair CLR 53.6 32 44% 29.83 0.0
08 00:35 NE 9 10.00 Fair CLR 53.6 33.8 47% 29.83 0.0
08 00:15 NE 8 10.00 A Few Clouds FEW090 53.6 37.4 54% 29.83 0.0
07 23:55 NE 7 10.00 Overcast OVC090 53.6 41 63% 29.83 0.0
07 23:35 NE 9 10.00 Overcast OVC090 53.6 41 63% 29.83 0.0
07 23:15 E 7 10.00 Overcast OVC090 55.4 41 59% 29.83 0.0
07 22:55 NE 5 10.00 Overcast OVC090 55.4 41 59% 29.83 0.0
07 22:35 E 5 10.00 Overcast OVC090 57.2 41 55% 29.83 0.0
07 22:15 NE 3 10.00 Overcast OVC090 57.2 41 55% 29.83 0.0
07 21:55 E 5 10.00 Overcast OVC095 59 39.2 48% 29.83 0.0
07 21:35 NE 5 10.00 Overcast OVC095 57.2 41 55% 29.82 0.0
07 21:15 SE 6 10.00 Overcast OVC095 55.4 41 59% 29.81 0.0
07 20:55 SE 5 10.00 Overcast OVC100 57.2 39.2 51% 29.8 0.0
07 20:35 Calm 10.00 Overcast OVC100 60.8 39.2 45% 29.8 0.0
07 20:15 N 6 10.00 Overcast OVC095 60.8 41 48% 29.79 0.0
07 19:55 NE 5 10.00 Overcast OVC085 62.6 39.2 42% 29.79 0.0
07 19:35 N 5 10.00 Mostly Cloudy BKN090 64.4 39.2 40% 29.79 0.0
07 19:15 N 5 10.00 Partly Cloudy SCT090 64.4 39.2 40% 29.79 0.0
07 18:55 N 7 10.00 Mostly Cloudy BKN085 BKN100 64.4 39.2 40% 29.79 0.0
07 18:35 NE 6 10.00 Partly Cloudy SCT085 SCT100 64.4 39.2 40% 29.79 0.0
07 18:15 NE 7 10.00 Fair CLR 64.4 39.2 40% 29.79 0.0
07 17:55 NE 6 10.00 A Few Clouds FEW090 64.4 39.2 40% 29.79 0.0
07 17:35 NE 8 10.00 Fair CLR 64.4 39.2 40% 29.8 0.0
07 17:15 N 7 10.00 Fair CLR 66.2 39.2 37% 29.8 0.0
07 16:55 NW 8 10.00 Fair CLR 66.2 37.4 35% 29.8 0.0
07 16:35 NW 6 G 13 10.00 Fair CLR 64.4 37.4 37% 29.81 0.0
07 16:15 NW 6 G 13 10.00 Fair CLR 66.2 37.4 35% 29.81 0.0
07 15:55 NW 8 10.00 A Few Clouds FEW065 FEW080 64.4 37.4 37% 29.82 0.0
07 15:35 W 12 10.00 A Few Clouds FEW065 FEW075 66.2 37.4 35% 29.82 0.0
07 15:15 W 12 G 18 10.00 A Few Clouds FEW060 FEW075 66.2 37.4 35% 29.83 0.0
07 14:55 NW 7 G 17 10.00 A Few Clouds FEW060 64.4 37.4 37% 29.83 0.0
07 14:35 W 10 G 16 10.00 Fair CLR 64.4 35.6 34% 29.84 0.0
07 14:15 W 9 G 16 10.00 Fair CLR 62.6 35.6 37% 29.85 0.0
07 13:55 NW 10 G 20 10.00 Fair CLR 62.6 35.6 37% 29.85 0.0
07 13:35 NW 9 10.00 Fair CLR 60.8 39.2 45% 29.86 0.0
07 13:15 W 12 10.00 Fair CLR 59 44.6 59% 29.87 0.0
07 12:55 SW 12 10.00 A Few Clouds FEW100 57.2 46.4 67% 29.88 0.0
07 12:35 SW 10 10.00 Fair CLR 53.6 46.4 77% 29.89 0.0
07 12:15 S 8 10.00 Fair CLR 51.8 46.4 82% 29.9 0.0
07 11:55 S 14 10.00 Fair CLR 50 46.4 88% 45 29.9 0.0
07 11:35 S 8 G 15 10.00 A Few Clouds FEW045 FEW050 FEW065 50 44.6 82% 47 29.89 0.0
07 11:15 S 10 10.00 Fair CLR 50 44.6 82% 46 29.89 0.0
07 10:55 S 8 8.00 A Few Clouds FEW040 FEW060 50 44.6 82% 47 29.91 0.0
07 10:35 SW 8 10.00 A Few Clouds FEW060 FEW070 50 42.8 76% 47 29.92 0.0
07 10:15 W 3 10.00 Partly Cloudy FEW055 SCT070 48.2 42.8 82% 29.91 0.0
07 09:55 SW 9 G 16 10.00 A Few Clouds FEW050 FEW055 FEW075 48.2 42.8 82% 45 29.91 0.0
07 09:35 W 9 10.00 A Few Clouds FEW055 48.2 42.8 82% 45 29.93 0.0
07 09:15 SW 6 10.00 Fair CLR 46.4 42.8 87% 44 29.92 0.0
07 08:55 S 9 G 17 9.00 Fair CLR 44.6 41 87% 40 29.92 0.0 0.02
07 08:35 SW 10 10.00 A Few Clouds FEW029 FEW038 46.4 41 82% 42 29.93 0.0
07 08:15 Calm 4.00 Mostly Cloudy with Haze FEW029 SCT037 BKN065 42.8 39.2 87% 29.91 0.0
07 07:55 Calm 10.00 Partly Cloudy FEW044 FEW055 SCT080 44.6 37.4 76% 29.92 0.0 0.01
07 07:35 W 3 4.00 Mostly Cloudy with Haze FEW038 FEW045 BKN055 44.6 32 61% 29.92 0.0
07 07:15 Calm 10.00 Overcast BKN055 OVC070 44.6 32 61% 29.92 0.0
07 06:55 SW 5 10.00 Overcast FEW055 BKN070 OVC080 44.6 30.2 57% 43 29.9 0.0
07 06:35 S 3 10.00 Mostly Cloudy SCT075 BKN095 BKN110 42.8 32 66% 29.89 0.0
07 06:15 S 7 9.00 Mostly Cloudy FEW075 BKN090 BKN110 39.2 30.2 70% 35 29.89 0.0
07 05:55 S 9 10.00 A Few Clouds FEW085 39.2 30.2 70% 34 29.89 0.0
07 05:35 S 8 10.00 A Few Clouds FEW090 41 28.4 61% 36 29.9 0.0
07 05:15 S 7 10.00 Mostly Cloudy FEW060 SCT080 BKN090 42.8 28.4 57% 39 29.92 0.0
07 04:55 Vrbl 5 8.00 Mostly Cloudy FEW055 SCT070 BKN080 42.8 30.2 61% 41 29.93 0.0
07 04:35 Calm 10.00 Mostly Cloudy FEW055 SCT065 BKN075 42.8 30.2 61% 29.94 0.0
07 04:15 S 5 10.00 Overcast FEW065 SCT075 OVC090 41 28.4 61% 38 29.94 0.0
07 03:55 S 6 10.00 Overcast FEW075 OVC090 41 28.4 61% 38 29.94 0.0
07 03:35 S 5 10.00 Overcast FEW080 OVC090 41 28.4 61% 38 29.95 0.0
07 03:15 S 6 10.00 Overcast FEW075 OVC090 41 28.4 61% 38 29.95 0.0
07 02:55 S 7 10.00 Overcast OVC090 41 28.4 61% 37 29.95 0.0
07 02:15 S 6 10.00 Overcast OVC090 39.2 26.6 61% 36 29.96 0.0
07 01:55 S 5 10.00 Overcast OVC095 39.2 26.6 61% 36 29.97 0.0
07 01:35 S 3 10.00 Mostly Cloudy BKN090 39.2 26.6 61% 29.97 0.0
07 01:15 S 3 10.00 Fair CLR 39.2 24.8 56% 29.98 0.0
07 00:55 S 6 10.00 Fair CLR 39.2 24.8 56% 36 29.98 0.0
07 00:35 S 6 10.00 Fair CLR 39.2 24.8 56% 36 29.98 0.0
07 00:15 S 5 10.00 Fair CLR 39.2 23 52% 36 29.98 0.0
06 23:55 S 5 10.00 Fair CLR 41 24.8 53% 38 29.99 0.0
06 23:35 S 6 10.00 Fair CLR 42.8 24.8 49% 40 29.99 0.0
06 23:15 S 3 10.00 Fair CLR 42.8 24.8 49% 29.99 0.0
06 22:55 S 5 10.00 Fair CLR 42.8 24.8 49% 41 29.99 0.0
06 22:35 SW 5 10.00 Fair CLR 42.8 24.8 49% 41 30 0.0
06 22:15 SW 3 10.00 Fair CLR 44.6 24.8 46% 30 0.0
06 21:55 SW 3 10.00 Fair CLR 44.6 24.8 46% 30 0.0
06 21:35 Calm 10.00 Fair CLR 48.2 23 37% 30 0.0
06 21:15 Calm 10.00 Fair CLR 46.4 23 40% 30 0.0
06 20:55 Calm 10.00 Fair CLR 50 21.2 32% 30 0.0
06 20:35 NW 5 10.00 Fair CLR 51.8 21.2 30% 29.99 0.0
06 20:15 NW 6 10.00 Fair CLR 51.8 21.2 30% 29.99 0.0
06 19:55 NW 7 10.00 Fair CLR 53.6 21.2 28% 29.99 0.0
06 19:35 NW 12 10.00 Fair CLR 53.6 19.4 26% 29.99 0.0
06 19:15 NW 9 G 15 10.00 Fair CLR 55.4 19.4 24% 29.99 0.0
06 18:55 NW 8 10.00 A Few Clouds FEW080 55.4 19.4 24% 30 0.0
06 18:35 NW 10 10.00 Partly Cloudy SCT080 55.4 21.2 26% 30 0.0
06 18:15 W 13 G 20 10.00 Partly Cloudy SCT080 55.4 21.2 26% 30.01 0.0
06 17:55 NW 9 G 17 10.00 A Few Clouds FEW080 55.4 21.2 26% 30.01 0.0
06 17:35 NW 13 G 23 10.00 A Few Clouds FEW085 55.4 21.2 26% 30.01 0.0
06 17:15 NW 16 G 25 10.00 A Few Clouds FEW080 FEW090 55.4 21.2 26% 30.01 0.0
06 16:55 NW 10 G 22 10.00 A Few Clouds FEW085 55.4 19.4 24% 30.01 0.0
06 16:35 NW 16 G 22 10.00 A Few Clouds FEW080 57.2 21.2 25% 30.01 0.0
06 16:15 W 16 G 28 10.00 A Few Clouds FEW080 55.4 19.4 24% 30.01 0.0
06 15:55 NW 16 G 29 10.00 Partly Cloudy SCT075 55.4 19.4 24% 30.02 0.0
06 15:35 W 16 G 24 10.00 Partly Cloudy SCT075 SCT085 57.2 21.2 25% 30.02 0.0
06 15:15 NW 14 G 22 10.00 Partly Cloudy SCT075 SCT085 55.4 21.2 26% 30.03 0.0
06 14:55 NW 14 10.00 A Few Clouds FEW075 55.4 21.2 26% 30.03 0.0
06 14:35 W 15 G 23 10.00 Partly Cloudy SCT075 55.4 21.2 26% 30.03 0.0
06 14:15 W 16 G 24 10.00 Partly Cloudy SCT070 SCT080 53.6 23 30% 30.04 0.0
06 13:55 NW 16 G 23 10.00 Partly Cloudy SCT065 SCT075 53.6 23 30% 30.04 0.0
06 13:35 NW 13 G 20 10.00 Partly Cloudy SCT065 53.6 23 30% 30.05 0.0
06 13:15 NW 13 G 23 10.00 Mostly Cloudy BKN065 BKN075 53.6 21.2 28% 30.05 0.0
06 12:55 NW 17 G 24 10.00 Mostly Cloudy BKN065 51.8 23 32% 30.05 0.0
06 12:35 NW 18 10.00 Mostly Cloudy BKN065 51.8 21.2 30% 30.06 0.0
06 12:15 NW 15 10.00 Mostly Cloudy BKN065 BKN075 51.8 23 32% 30.06 0.0
06 11:55 NW 14 G 21 10.00 Mostly Cloudy BKN065 51.8 23 32% 30.06 0.0
06 11:35 W 13 10.00 Mostly Cloudy BKN065 51.8 23 32% 30.06 0.0
06 11:15 NW 13 G 23 10.00 Partly Cloudy SCT065 51.8 23 32% 30.05 0.0
06 10:55 NW 12 G 18 0.00 A Few Clouds FEW060 51.8 23 32% 30.05 0.0
06 10:35 NW 10 G 22 10.00 Fair CLR 51.8 23 32% 30.05 0.0
06 10:15 W 15 10.00 Fair CLR 50 24.8 37% 45 30.05 0.0
06 09:55 NW 12 10.00 Fair CLR 48.2 24.8 40% 44 30.05 0.0
06 09:35 NW 10 10.00 Fair CLR 48.2 24.8 40% 44 30.05 0.0
06 09:15 N 9 G 15 10.00 Fair CLR 46.4 26.6 46% 42 30.05 0.0
06 08:55 N 12 10.00 Fair CLR 44.6 24.8 46% 39 30.04 0.0
06 08:35 N 8 10.00 Fair CLR 44.6 26.6 49% 41 30.03 0.0
06 08:15 N 6 10.00 Fair CLR 42.8 28.4 57% 40 30.03 0.0
06 07:55 N 9 10.00 Fair CLR 42.8 28.4 57% 38 30.03 0.0
06 07:35 N 7 10.00 Fair CLR 42.8 28.4 57% 39 30.02 0.0
06 07:15 N 8 10.00 Fair CLR 41 28.4 61% 36 30.02 0.0
06 06:55 NW 7 10.00 Fair CLR 39.2 30.2 70% 35 30.01 0.0
06 06:35 N 6 10.00 Fair CLR 39.2 28.4 65% 36 30 0.0
06 06:15 N 6 10.00 Fair CLR 39.2 28.4 65% 36 29.99 0.0
06 05:55 N 8 10.00 Fair CLR 41 26.6 57% 36 29.98 0.0
06 05:35 N 9 10.00 Fair CLR 41 26.6 57% 36 29.97 0.0
06 05:15 N 8 10.00 Fair CLR 41 26.6 57% 36 29.97 0.0
06 04:55 N 9 10.00 Fair CLR 41 26.6 57% 36 29.97 0.0
06 04:35 N 10 10.00 Fair CLR 41 26.6 57% 35 29.96 0.0
06 04:15 N 9 10.00 Fair CLR 41 26.6 57% 36 29.96 0.0
06 03:55 N 7 10.00 Fair CLR 41 26.6 57% 37 29.95 0.0
06 03:35 N 9 10.00 Fair CLR 41 24.8 53% 36 29.95 0.0
06 03:15 N 8 10.00 Fair CLR 39.2 24.8 56% 34 29.95 0.0
06 02:55 N 8 10.00 Fair CLR 41 24.8 53% 36 29.94 0.0
06 02:35 N 8 10.00 Fair CLR 41 24.8 53% 36 29.94 0.0
06 02:15 N 8 10.00 Fair CLR 41 26.6 57% 36 29.95 0.0
06 01:55 N 9 10.00 Fair CLR 42.8 24.8 49% 38 29.95 0.0
06 01:35 N 9 10.00 Fair CLR 42.8 26.6 53% 38 29.95 0.0
06 01:15 N 10 10.00 Fair CLR 42.8 24.8 49% 38 29.94 0.0
06 00:55 N 9 10.00 Fair CLR 42.8 26.6 53% 38 29.94 0.0
06 00:15 N 7 10.00 Fair CLR 42.8 26.6 53% 39 29.91 0.0
05 23:55 N 8 10.00 Fair CLR 44.6 26.6 49% 41 29.91 0.0
05 23:35 N 9 10.00 Fair CLR 44.6 28.4 53% 40 29.91 0.0
05 23:15 N 7 10.00 Fair CLR 46.4 28.4 50% 43 29.9 0.0
05 22:55 N 8 10.00 Fair CLR 46.4 26.6 46% 43 29.9 0.0
05 22:35 N 7 10.00 Fair CLR 48.2 26.6 43% 46 29.9 0.0
05 22:15 N 9 10.00 Fair CLR 50 26.6 40% 47 29.89 0.0
05 21:55 N 10 10.00 Fair CLR 51.8 26.6 38% 29.88 0.0
05 21:35 N 9 10.00 Fair CLR 51.8 28.4 41% 29.88 0.0
05 21:15 N 8 10.00 Fair CLR 51.8 26.6 38% 29.87 0.0
05 20:55 N 12 10.00 Fair CLR 53.6 26.6 35% 29.86 0.0
05 20:35 N 13 G 18 9.00 Fair CLR 53.6 24.8 33% 29.85 0.0
05 20:15 N 9 6.00 Fair with Haze CLR 53.6 26.6 35% 29.85 0.0
05 19:55 N 17 10.00 Fair CLR 55.4 23 28% 29.84 0.0
05 19:35 NW 12 10.00 Fair CLR 55.4 23 28% 29.83 0.0
05 19:15 NW 9 10.00 Fair CLR 57.2 23 27% 29.83 0.0
05 18:55 NW 12 10.00 Fair CLR 57.2 21.2 25% 29.83 0.0
05 18:35 NW 17 G 23 10.00 Fair CLR 57.2 23 27% 29.82 0.0
05 18:15 NW 17 G 23 10.00 Fair CLR 59 21.2 23% 29.82 0.0
05 17:55 NW 18 G 24 10.00 Fair CLR 59 21.2 23% 29.82 0.0
05 17:35 NW 17 G 26 10.00 Fair CLR 59 23 25% 29.82 0.0
05 17:15 NW 17 10.00 Fair CLR 59 24.8 27% 29.81 0.0
05 16:55 NW 17 10.00 Fair CLR 60.8 23 23% 29.81 0.0
05 16:35 NW 13 G 18 10.00 Fair CLR 60.8 23 23% 29.81 0.0
05 16:15 W 10 10.00 Fair CLR 59 24.8 27% 29.82 0.0
05 15:55 W 8 G 20 10.00 A Few Clouds FEW080 59 24.8 27% 29.82 0.0
05 15:35 SW 13 10.00 A Few Clouds FEW075 59 26.6 29% 29.83 0.0
05 15:15 W 13 10.00 Partly Cloudy SCT075 59 26.6 29% 29.84 0.0
Date Time (cdt) Wind (mph) Vis. (mi.) Weather Sky Cond. Air Dwpt Max. Min. Relative Humidity Wind Chill (°F) Heat Index (°F) altimeter (in) sea level (mb) 1 hr 3 hr 6 hr
6 hour
Temperature (ºF) Pressure Precipitation (in)